Time;durP1;ratioP1;P1;durP2;ratioP2;P2;SDS_P1;SDS_P2;PMS_P1;PMS_P2;Temp;Humidity;BMP_temperature;BMP_pressure;BME280_temperature;BME280_humidity;BME280_pressure;Samples;Min_cycle;Max_cycle;Signal;HPM_P1;HPM_P2
2022/01/26 00:05:44;;;;;;;;;;;1.70;99.90;;;;;;5013454;28;20329;-60
2022/01/26 00:06:27;;;;;;;;;;;1.60;99.90;;;;;;5013428;28;20420;-60
2022/01/26 00:08:53;;;;;;;;;;;1.60;99.90;;;;;;5013172;28;20412;-59
2022/01/26 00:11:18;;;;;;;;;;;1.50;99.90;;;;;;5022781;28;19920;-59
2022/01/26 00:13:44;;;;;;;;;;;1.50;99.90;;;;;;5071005;28;20008;-60
2022/01/26 00:16:19;;;;;;;;;;;1.50;99.90;;;;;;5071151;28;20007;-57
2022/01/26 00:18:45;;;;;;;;;;;1.50;99.90;;;;;;5070598;28;19966;-59
2022/01/26 00:21:25;;;;;;;;;;;1.40;99.90;;;;;;5070434;28;19912;-58
2022/01/26 00:24:08;;;;;;;;;;;1.40;99.90;;;;;;5070585;28;20015;-58
2022/01/26 00:29:22;;;;;;;;;;;1.30;99.90;;;;;;4987043;28;19914;-59
2022/01/26 00:40:03;;;;;;;;;;;1.30;99.90;;;;;;4983453;28;20024;-58
2022/01/26 00:42:34;;;;;;;;;;;1.40;99.90;;;;;;4981537;28;19925;-59
2022/01/26 00:45:00;;;;;;;;;;;1.50;99.90;;;;;;4981383;28;19922;-59
2022/01/26 00:47:25;;;;;;;;;;;1.50;99.90;;;;;;4974277;28;20314;-60
2022/01/26 00:49:56;;;;;;;;;;;1.50;99.90;;;;;;4978354;28;20282;-63
2022/01/26 00:52:29;;;;;;;;;;;1.50;99.90;;;;;;4989130;28;19914;-59
2022/01/26 00:54:55;;;;;;;;;;;1.40;99.90;;;;;;4981955;28;19914;-59
2022/01/26 00:57:21;;;;;;;;;;;1.40;99.90;;;;;;4978122;28;19969;-60
2022/01/26 00:59:47;;;;;;;;;;;1.30;99.90;;;;;;4978875;28;20407;-59
2022/01/26 01:02:12;;;;;;;;;;;1.40;99.90;;;;;;4978513;28;19953;-60
2022/01/26 01:04:38;;;;;;;;;;;1.50;99.90;;;;;;4975990;28;19917;-57
2022/01/26 01:07:05;;;;;;;;;;;1.50;99.90;;;;;;5046263;28;19999;-59
2022/01/26 01:09:34;;;;;;;;;;;1.50;99.90;;;;;;5070678;28;19916;-59
2022/01/26 01:12:01;;;;;;;;;;;1.60;99.90;;;;;;5070099;28;19943;-59
2022/01/26 01:14:27;;;;;;;;;;;1.50;99.90;;;;;;5070848;28;19921;-59
2022/01/26 01:16:55;;;;;;;;;;;1.50;99.90;;;;;;5071068;28;20292;-59
2022/01/26 01:28:09;;;;;;;;;;;1.70;99.90;;;;;;5031674;28;19996;-59
2022/01/26 01:30:39;;;;;;;;;;;1.70;99.90;;;;;;5031464;28;20011;-58
2022/01/26 01:33:08;;;;;;;;;;;1.70;99.90;;;;;;5031083;28;20538;-59
2022/01/26 01:35:36;;;;;;;;;;;1.70;99.90;;;;;;5031821;28;19924;-58
2022/01/26 01:38:09;;;;;;;;;;;1.70;99.90;;;;;;5031705;28;19910;-61
2022/01/26 01:40:35;;;;;;;;;;;1.70;99.90;;;;;;5030397;28;19913;-59
2022/01/26 01:43:01;;;;;;;;;;;1.80;99.90;;;;;;5031246;28;20015;-59
2022/01/26 01:45:34;;;;;;;;;;;1.80;99.90;;;;;;5031381;28;20008;-61
2022/01/26 01:47:59;;;;;;;;;;;1.80;99.90;;;;;;5026823;28;19912;-60
2022/01/26 01:50:25;;;;;;;;;;;1.80;99.90;;;;;;5031166;28;19909;-61
2022/01/26 01:52:51;;;;;;;;;;;1.80;99.90;;;;;;5032455;28;19928;-60
2022/01/26 01:55:16;;;;;;;;;;;1.80;99.90;;;;;;5036019;28;19925;-60
2022/01/26 01:57:42;;;;;;;;;;;1.90;99.90;;;;;;5045499;28;19913;-59
2022/01/26 02:00:08;;;;;;;;;;;1.70;99.90;;;;;;5039451;28;20448;-60
2022/01/26 02:02:33;;;;;;;;;;;1.60;99.90;;;;;;5041436;28;20259;-59
2022/01/26 02:04:59;;;;;;;;;;;1.60;99.90;;;;;;5072184;28;19927;-59
2022/01/26 02:07:25;;;;;;;;;;;1.60;99.90;;;;;;5073899;28;19935;-59
2022/01/26 02:09:51;;;;;;;;;;;1.60;99.90;;;;;;5073362;28;19912;-59
2022/01/26 02:12:19;;;;;;;;;;;1.60;99.90;;;;;;5073051;28;19958;-58
2022/01/26 02:14:51;;;;;;;;;;;1.60;99.90;;;;;;5073234;28;20017;-58
2022/01/26 02:50:14;;;;;;;;;;;1.70;99.90;;;;;;5073489;28;19916;-56
2022/01/26 02:53:25;;;;;;;;;;;1.60;99.90;;;;;;5055921;28;19913;-56
2022/01/26 03:03:27;;;;;;;;;;;1.60;99.90;;;;;;5053516;28;19916;-56
2022/01/26 03:06:04;;;;;;;;;;;1.60;99.90;;;;;;5053654;28;19920;-53
2022/01/26 03:08:35;;;;;;;;;;;1.60;99.90;;;;;;5035430;28;20000;-55
2022/01/26 03:11:07;;;;;;;;;;;1.70;99.90;;;;;;5054559;28;20013;-56
2022/01/26 03:13:35;;;;;;;;;;;1.70;99.90;;;;;;5054654;28;20027;-56
2022/01/26 03:16:11;;;;;;;;;;;1.70;99.90;;;;;;5052857;28;19956;-56
2022/01/26 03:21:27;;;;;;;;;;;1.70;99.90;;;;;;5052855;28;19916;-57
2022/01/26 03:34:28;;;;;;;;;;;1.70;99.90;;;;;;5054363;28;20301;-54
2022/01/26 03:36:59;;;;;;;;;;;1.70;99.90;;;;;;5052406;28;19917;-56
2022/01/26 03:39:26;;;;;;;;;;;1.60;99.90;;;;;;5052902;28;19920;-57
2022/01/26 03:42:02;;;;;;;;;;;1.70;99.90;;;;;;5052381;28;19916;-56
2022/01/26 03:44:27;;;;;;;;;;;1.60;99.90;;;;;;5033495;28;19955;-56
2022/01/26 03:46:53;;;;;;;;;;;1.60;99.90;;;;;;5055235;28;19940;-53
2022/01/26 03:49:18;;;;;;;;;;;1.60;99.90;;;;;;5054355;28;19909;-56
2022/01/26 03:51:44;;;;;;;;;;;1.70;99.90;;;;;;5052301;28;20328;-56
2022/01/26 03:54:10;;;;;;;;;;;1.70;99.90;;;;;;5052625;28;19920;-56
2022/01/26 03:56:36;;;;;;;;;;;1.80;99.90;;;;;;5049782;28;19978;-56
2022/01/26 03:59:03;;;;;;;;;;;1.80;99.90;;;;;;5053427;28;19913;-56
2022/01/26 04:01:28;;;;;;;;;;;1.90;99.90;;;;;;5048028;28;19915;-57
2022/01/26 04:03:54;;;;;;;;;;;1.90;99.90;;;;;;5053065;28;19917;-55
2022/01/26 04:06:19;;;;;;;;;;;2.00;99.90;;;;;;5052109;28;19913;-53
2022/01/26 04:08:45;;;;;;;;;;;2.00;99.90;;;;;;5051199;28;20323;-56
2022/01/26 04:13:59;;;;;;;;;;;2.00;99.90;;;;;;5064254;28;20376;-55
2022/01/26 04:16:25;;;;;;;;;;;2.00;99.90;;;;;;5054306;28;19909;-55
2022/01/26 04:18:52;;;;;;;;;;;2.00;99.90;;;;;;5030375;28;20296;-57
2022/01/26 04:24:01;;;;;;;;;;;2.10;99.90;;;;;;5052186;28;19920;-55
2022/01/26 04:26:39;;;;;;;;;;;2.10;99.90;;;;;;5032576;28;20300;-57
2022/01/26 04:29:10;;;;;;;;;;;2.10;99.90;;;;;;5052233;28;19974;-57
2022/01/26 04:31:36;;;;;;;;;;;2.10;99.90;;;;;;5054091;28;19920;-55
2022/01/26 04:34:02;;;;;;;;;;;2.10;99.90;;;;;;5051637;28;19917;-57
2022/01/26 04:36:36;;;;;;;;;;;2.20;99.90;;;;;;5039481;28;19924;-57
2022/01/26 04:39:07;;;;;;;;;;;2.20;99.90;;;;;;5052199;28;19920;-56
2022/01/26 04:41:42;;;;;;;;;;;2.20;99.90;;;;;;5032706;28;20322;-56
2022/01/26 04:44:20;;;;;;;;;;;2.20;99.90;;;;;;5051464;28;19908;-55
2022/01/26 04:46:46;;;;;;;;;;;2.20;99.90;;;;;;5055421;28;20391;-57
2022/01/26 04:49:11;;;;;;;;;;;2.20;99.90;;;;;;5051575;28;20380;-56
2022/01/26 04:51:37;;;;;;;;;;;2.30;99.90;;;;;;5052105;28;19987;-58
2022/01/26 04:54:02;;;;;;;;;;;2.30;99.90;;;;;;5052063;28;20319;-54
2022/01/26 04:56:28;;;;;;;;;;;2.30;99.90;;;;;;5031426;28;19931;-56
2022/01/26 04:58:53;;;;;;;;;;;2.40;99.90;;;;;;5056446;28;19916;-58
2022/01/26 05:01:19;;;;;;;;;;;2.40;99.90;;;;;;5057798;28;19913;-53
2022/01/26 05:03:44;;;;;;;;;;;2.50;99.90;;;;;;5055228;28;20296;-56
2022/01/26 05:06:10;;;;;;;;;;;2.40;99.90;;;;;;5056041;28;19918;-55
2022/01/26 05:08:36;;;;;;;;;;;2.50;99.90;;;;;;5038479;28;20374;-55
2022/01/26 05:11:02;;;;;;;;;;;2.50;99.90;;;;;;5056515;28;19970;-57
2022/01/26 05:13:28;;;;;;;;;;;2.50;99.90;;;;;;5056870;28;20376;-56
2022/01/26 05:15:54;;;;;;;;;;;2.50;99.90;;;;;;5055747;28;19920;-53
2022/01/26 05:18:19;;;;;;;;;;;2.50;99.90;;;;;;5055537;28;19967;-55
2022/01/26 05:20:45;;;;;;;;;;;2.50;99.90;;;;;;5054079;28;20407;-58
2022/01/26 05:23:10;;;;;;;;;;;2.50;99.90;;;;;;5054389;28;19959;-56
2022/01/26 05:25:36;;;;;;;;;;;2.50;99.90;;;;;;5057061;28;19940;-54
2022/01/26 05:28:01;;;;;;;;;;;2.60;99.90;;;;;;5055401;28;19929;-56
2022/01/26 05:30:27;;;;;;;;;;;2.60;99.90;;;;;;5045113;28;20313;-56
2022/01/26 05:32:53;;;;;;;;;;;2.60;99.90;;;;;;5055255;28;19912;-52
2022/01/26 05:35:18;;;;;;;;;;;2.60;99.90;;;;;;5052159;28;20381;-55
2022/01/26 05:37:44;;;;;;;;;;;2.60;99.90;;;;;;5058449;28;19909;-56
2022/01/26 05:40:11;;;;;;;;;;;2.60;99.90;;;;;;5055198;28;19920;-55
2022/01/26 05:42:37;;;;;;;;;;;2.60;99.90;;;;;;5054650;28;19943;-55
2022/01/26 05:45:05;;;;;;;;;;;2.60;99.90;;;;;;5054694;28;19916;-55
2022/01/26 05:47:34;;;;;;;;;;;2.70;99.90;;;;;;5050531;28;19913;-57
2022/01/26 05:50:01;;;;;;;;;;;2.70;99.90;;;;;;5055236;28;19964;-57
2022/01/26 05:52:26;;;;;;;;;;;2.70;99.90;;;;;;5057120;28;19908;-56
2022/01/26 05:54:52;;;;;;;;;;;2.70;99.90;;;;;;5054107;28;19932;-58
2022/01/26 05:57:17;;;;;;;;;;;2.70;99.90;;;;;;5054431;28;19919;-58
2022/01/26 05:59:43;;;;;;;;;;;2.70;99.90;;;;;;5052579;28;20085;-56
2022/01/26 06:02:08;;;;;;;;;;;2.80;99.90;;;;;;5035820;28;19912;-58
2022/01/26 06:04:34;;;;;;;;;;;2.70;99.90;;;;;;5055812;28;19913;-58
2022/01/26 06:06:59;;;;;;;;;;;2.80;99.90;;;;;;5054294;28;19917;-58
2022/01/26 06:09:25;;;;;;;;;;;2.70;99.90;;;;;;5053837;28;20384;-57
2022/01/26 06:11:51;;;;;;;;;;;2.60;99.90;;;;;;5052593;28;19963;-51
2022/01/26 06:14:16;;;;;;;;;;;2.60;99.90;;;;;;5051645;28;19924;-59
2022/01/26 06:16:42;;;;;;;;;;;2.60;99.90;;;;;;5056236;28;19959;-57
2022/01/26 06:19:07;;;;;;;;;;;2.60;99.90;;;;;;5049461;28;19956;-58
2022/01/26 06:21:33;;;;;;;;;;;2.60;99.90;;;;;;5045303;28;20351;-57
2022/01/26 06:23:58;;;;;;;;;;;2.60;99.90;;;;;;5053915;28;19948;-58
2022/01/26 06:26:24;;;;;;;;;;;2.60;99.90;;;;;;5049682;28;19920;-58
2022/01/26 06:28:50;;;;;;;;;;;2.50;99.90;;;;;;5057261;28;20011;-55
2022/01/26 06:31:16;;;;;;;;;;;2.60;99.90;;;;;;5053408;28;20016;-57
2022/01/26 06:33:43;;;;;;;;;;;2.60;99.90;;;;;;5053739;28;20015;-57
2022/01/26 06:36:09;;;;;;;;;;;2.60;99.90;;;;;;5053655;28;19947;-58
2022/01/26 06:38:35;;;;;;;;;;;2.60;99.90;;;;;;5050519;28;19913;-56
2022/01/26 06:41:01;;;;;;;;;;;2.60;99.90;;;;;;5054377;28;20369;-55
2022/01/26 06:43:29;;;;;;;;;;;2.60;99.90;;;;;;5055139;28;19916;-56
2022/01/26 06:46:03;;;;;;;;;;;2.60;99.90;;;;;;5053412;28;20292;-57
2022/01/26 06:48:56;;;;;;;;;;;2.70;99.90;;;;;;5053173;28;19928;-58
2022/01/26 06:51:22;;;;;;;;;;;2.60;99.90;;;;;;5053398;28;19939;-56
2022/01/26 06:53:47;;;;;;;;;;;2.60;99.90;;;;;;5044413;28;19912;-58
2022/01/26 06:56:13;;;;;;;;;;;2.60;99.90;;;;;;5058942;28;19912;-55
2022/01/26 06:58:39;;;;;;;;;;;2.70;99.90;;;;;;5055082;28;19916;-58
2022/01/26 07:01:04;;;;;;;;;;;2.70;99.90;;;;;;5046284;28;19999;-54
2022/01/26 07:03:30;;;;;;;;;;;2.70;99.90;;;;;;5042896;28;19921;-57
2022/01/26 07:05:55;;;;;;;;;;;2.70;99.90;;;;;;5049477;28;20488;-55
2022/01/26 07:08:21;;;;;;;;;;;2.60;99.90;;;;;;5049198;28;19921;-56
2022/01/26 07:10:49;;;;;;;;;;;2.60;99.90;;;;;;5056042;28;19915;-56
2022/01/26 07:13:14;;;;;;;;;;;2.60;99.90;;;;;;5052794;28;19917;-55
2022/01/26 07:21:27;;;;;;;;;;;2.60;99.90;;;;;;5052654;28;19958;-54
2022/01/26 07:24:01;;;;;;;;;;;2.60;99.90;;;;;;5051460;28;20395;-52
2022/01/26 07:26:29;;;;;;;;;;;2.60;99.90;;;;;;5035567;28;19932;-50
2022/01/26 07:28:59;;;;;;;;;;;2.60;99.90;;;;;;5054172;28;20289;-57
2022/01/26 07:31:25;;;;;;;;;;;2.60;99.90;;;;;;5048155;28;19920;-69
2022/01/26 07:33:56;;;;;;;;;;;2.70;99.90;;;;;;5044670;28;19912;-69
2022/01/26 07:36:22;;;;;;;;;;;2.80;99.90;;;;;;5051148;28;19920;-69
2022/01/26 07:38:50;;;;;;;;;;;2.80;99.90;;;;;;5050269;28;19919;-69
2022/01/26 07:41:16;;;;;;;;;;;2.80;99.90;;;;;;5051211;28;19921;-69
2022/01/26 07:43:41;;;;;;;;;;;2.90;99.90;;;;;;5049768;28;20301;-68
2022/01/26 07:46:09;;;;;;;;;;;2.90;99.90;;;;;;5052122;28;19919;-69
2022/01/26 07:48:35;;;;;;;;;;;2.90;99.90;;;;;;5040262;28;19917;-71
2022/01/26 07:51:01;;;;;;;;;;;2.90;99.90;;;;;;5049065;28;19919;-68
2022/01/26 07:53:26;;;;;;;;;;;2.90;99.90;;;;;;5039390;28;20459;-70
2022/01/26 07:55:52;;;;;;;;;;;3.00;99.90;;;;;;5045135;28;19975;-68
2022/01/26 07:58:18;;;;;;;;;;;3.00;99.90;;;;;;5040307;28;19913;-68
2022/01/26 08:00:44;;;;;;;;;;;3.00;99.90;;;;;;5047795;28;19913;-69
2022/01/26 08:03:10;;;;;;;;;;;3.00;99.90;;;;;;5031459;28;20012;-67
2022/01/26 08:05:35;;;;;;;;;;;3.00;99.90;;;;;;5041726;28;19924;-68
2022/01/26 08:08:01;;;;;;;;;;;3.00;99.90;;;;;;5046108;28;19920;-68
2022/01/26 08:10:27;;;;;;;;;;;3.00;99.90;;;;;;5037189;28;19952;-68
2022/01/26 08:12:52;;;;;;;;;;;3.00;99.90;;;;;;5035949;28;20012;-68
2022/01/26 08:15:18;;;;;;;;;;;3.00;99.90;;;;;;5037895;28;19921;-70
2022/01/26 08:17:44;;;;;;;;;;;3.00;99.90;;;;;;5036821;28;19920;-68
2022/01/26 08:20:10;;;;;;;;;;;3.00;99.90;;;;;;5033758;28;19947;-71
2022/01/26 08:22:36;;;;;;;;;;;3.10;99.90;;;;;;5037577;28;19921;-70
2022/01/26 08:25:02;;;;;;;;;;;3.10;99.90;;;;;;5034821;28;20462;-69
2022/01/26 08:27:33;;;;;;;;;;;3.20;99.90;;;;;;5033297;28;19921;-69
2022/01/26 08:30:07;;;;;;;;;;;3.20;99.90;;;;;;5037908;28;19913;-70
2022/01/26 08:32:33;;;;;;;;;;;3.20;99.90;;;;;;5035962;28;20274;-68
2022/01/26 08:34:58;;;;;;;;;;;3.20;99.90;;;;;;5036830;28;19988;-69
2022/01/26 08:37:24;;;;;;;;;;;3.20;99.90;;;;;;5035704;28;20223;-68
2022/01/26 08:39:49;;;;;;;;;;;3.20;99.90;;;;;;5037164;28;19916;-70
2022/01/26 08:42:15;;;;;;;;;;;3.20;99.90;;;;;;5040547;28;19917;-68
2022/01/26 08:44:40;;;;;;;;;;;3.30;99.90;;;;;;5042643;28;19917;-68
2022/01/26 08:47:06;;;;;;;;;;;3.30;99.90;;;;;;5037614;28;19928;-69
2022/01/26 08:49:32;;;;;;;;;;;3.40;99.90;;;;;;5035949;28;20301;-70
2022/01/26 08:51:58;;;;;;;;;;;3.40;99.90;;;;;;5036041;28;20336;-69
2022/01/26 08:54:24;;;;;;;;;;;3.40;99.90;;;;;;5031397;28;20400;-67
2022/01/26 08:56:50;;;;;;;;;;;3.50;99.90;;;;;;5035578;28;19925;-71
2022/01/26 08:59:16;;;;;;;;;;;3.40;99.90;;;;;;5047540;28;20461;-70
2022/01/26 09:01:42;;;;;;;;;;;3.40;99.90;;;;;;5040877;28;19920;-70
2022/01/26 09:04:07;;;;;;;;;;;3.50;99.90;;;;;;5037885;28;19912;-70
2022/01/26 09:06:38;;;;;;;;;;;3.50;99.90;;;;;;5039419;28;19996;-70
2022/01/26 09:09:07;;;;;;;;;;;3.50;99.90;;;;;;5036559;28;19913;-69
2022/01/26 09:11:35;;;;;;;;;;;3.50;99.90;;;;;;5036123;28;19925;-75
2022/01/26 09:14:07;;;;;;;;;;;3.50;99.90;;;;;;5034910;28;19953;-73
2022/01/26 09:16:33;;;;;;;;;;;3.60;99.90;;;;;;5042585;28;20373;-73
2022/01/26 09:19:06;;;;;;;;;;;3.60;99.90;;;;;;5037127;28;20007;-71
2022/01/26 09:21:32;;;;;;;;;;;3.60;99.90;;;;;;5033964;28;19913;-73
2022/01/26 09:23:58;;;;;;;;;;;3.70;99.90;;;;;;5040643;28;20348;-71
2022/01/26 09:26:23;;;;;;;;;;;3.70;99.90;;;;;;5035051;28;19917;-72
2022/01/26 09:28:48;;;;;;;;;;;3.60;99.90;;;;;;5036881;28;19921;-70
2022/01/26 09:31:14;;;;;;;;;;;3.60;99.90;;;;;;5034330;28;20007;-71
2022/01/26 09:33:39;;;;;;;;;;;3.60;99.90;;;;;;5036224;28;19939;-72
2022/01/26 09:36:05;;;;;;;;;;;3.60;99.90;;;;;;5017177;28;19928;-71
2022/01/26 09:38:31;;;;;;;;;;;3.60;99.90;;;;;;5033723;28;19920;-72
2022/01/26 09:40:56;;;;;;;;;;;3.50;99.90;;;;;;5044115;28;19975;-72
2022/01/26 09:43:21;;;;;;;;;;;3.50;99.90;;;;;;5034483;28;20385;-71
2022/01/26 09:45:47;;;;;;;;;;;3.60;99.90;;;;;;5038211;28;19917;-71
2022/01/26 09:48:13;;;;;;;;;;;3.60;99.90;;;;;;5038616;28;20022;-73
2022/01/26 09:50:43;;;;;;;;;;;3.60;99.90;;;;;;5039601;28;19986;-70
2022/01/26 09:53:10;;;;;;;;;;;3.60;99.90;;;;;;5037197;28;20369;-70
2022/01/26 09:55:36;;;;;;;;;;;3.70;99.90;;;;;;5039261;28;20049;-74
2022/01/26 09:58:02;;;;;;;;;;;3.70;99.90;;;;;;5041683;28;19917;-72
2022/01/26 10:00:28;;;;;;;;;;;3.70;99.90;;;;;;5038266;28;19960;-72
2022/01/26 10:02:58;;;;;;;;;;;3.70;99.90;;;;;;5038165;28;19989;-71
2022/01/26 10:05:24;;;;;;;;;;;3.80;99.90;;;;;;5040286;28;19928;-74
2022/01/26 10:08:10;;;;;;;;;;;3.80;99.90;;;;;;5044673;28;19921;-74
2022/01/26 10:16:10;;;;;;;;;;;3.90;99.90;;;;;;5039281;28;19971;-72
2022/01/26 10:18:36;;;;;;;;;;;3.90;99.90;;;;;;5038917;28;19921;-73
2022/01/26 10:21:03;;;;;;;;;;;3.90;99.90;;;;;;5039343;28;19913;-73
2022/01/26 10:23:34;;;;;;;;;;;4.00;99.90;;;;;;5038484;28;19913;-74
2022/01/26 10:26:03;;;;;;;;;;;3.90;99.90;;;;;;5042911;28;19996;-75
2022/01/26 10:28:47;;;;;;;;;;;3.80;99.90;;;;;;5035359;28;19921;-70
2022/01/26 10:31:15;;;;;;;;;;;3.80;99.90;;;;;;5037234;28;19917;-74
2022/01/26 10:33:52;;;;;;;;;;;3.80;99.90;;;;;;5038638;28;19948;-75
2022/01/26 10:36:17;;;;;;;;;;;3.80;99.90;;;;;;5036884;28;19927;-75
2022/01/26 10:38:43;;;;;;;;;;;3.80;99.90;;;;;;5038221;28;19921;-74
2022/01/26 10:41:19;;;;;;;;;;;3.80;99.90;;;;;;5039224;28;19913;-73
2022/01/26 10:43:48;;;;;;;;;;;3.80;99.90;;;;;;5039499;28;19956;-74
2022/01/26 10:46:23;;;;;;;;;;;3.80;99.90;;;;;;5037049;28;19913;-73
2022/01/26 10:49:08;;;;;;;;;;;3.90;99.90;;;;;;5039840;28;19996;-72
2022/01/26 10:57:00;;;;;;;;;;;4.00;99.90;;;;;;5040563;28;19913;-71
2022/01/26 10:59:26;;;;;;;;;;;4.00;99.90;;;;;;5040902;28;19912;-73
2022/01/26 11:01:51;;;;;;;;;;;3.90;99.90;;;;;;5021872;28;19943;-72
2022/01/26 11:04:17;;;;;;;;;;;4.00;99.90;;;;;;5017850;28;19917;-70
2022/01/26 11:06:48;;;;;;;;;;;4.00;99.90;;;;;;5037307;28;19921;-73
2022/01/26 11:09:16;;;;;;;;;;;4.10;99.90;;;;;;5037958;28;20004;-71
2022/01/26 11:11:41;;;;;;;;;;;4.10;99.90;;;;;;5035753;28;19917;-67
2022/01/26 11:14:14;;;;;;;;;;;4.10;99.90;;;;;;5036853;28;19968;-70
2022/01/26 11:16:53;;;;;;;;;;;4.20;99.90;;;;;;5039971;28;19921;-71
2022/01/26 11:19:19;;;;;;;;;;;4.20;99.90;;;;;;5035631;28;20368;-70
2022/01/26 11:21:45;;;;;;;;;;;4.20;99.90;;;;;;5039135;28;19914;-72
2022/01/26 11:24:18;;;;;;;;;;;4.20;99.90;;;;;;5035416;28;19913;-74
2022/01/26 11:26:45;;;;;;;;;;;4.30;99.90;;;;;;5040812;28;19921;-71
2022/01/26 11:29:14;;;;;;;;;;;4.30;99.90;;;;;;5040195;28;19967;-73
2022/01/26 11:31:41;;;;;;;;;;;4.30;99.90;;;;;;5057281;28;19913;-74
2022/01/26 11:34:07;;;;;;;;;;;4.30;99.90;;;;;;5036801;28;19944;-72
2022/01/26 11:36:33;;;;;;;;;;;4.30;99.90;;;;;;5035774;28;19951;-72
2022/01/26 11:47:06;;;;;;;;;;;4.40;99.90;;;;;;5037551;28;20515;-73
2022/01/26 11:49:32;;;;;;;;;;;4.40;99.90;;;;;;5038867;28;19920;-71
2022/01/26 11:51:58;;;;;;;;;;;4.50;99.90;;;;;;5036751;28;19913;-73
2022/01/26 11:54:25;;;;;;;;;;;4.50;99.90;;;;;;5035514;28;19927;-74
2022/01/26 11:57:01;;;;;;;;;;;4.50;99.90;;;;;;5035159;28;19913;-74
2022/01/26 11:59:29;;;;;;;;;;;4.50;99.90;;;;;;5036349;28;19921;-72
2022/01/26 12:02:02;;;;;;;;;;;4.60;99.90;;;;;;5038856;28;19962;-75
2022/01/26 12:04:31;;;;;;;;;;;4.60;99.90;;;;;;5039085;28;19921;-74
2022/01/26 12:07:09;;;;;;;;;;;4.70;99.90;;;;;;5037729;28;19915;-74
2022/01/26 12:09:34;;;;;;;;;;;4.70;99.90;;;;;;5036240;28;19913;-74
2022/01/26 12:12:00;;;;;;;;;;;4.70;99.90;;;;;;5038848;28;19920;-70
2022/01/26 12:14:25;;;;;;;;;;;4.80;99.90;;;;;;5035523;28;19916;-71
2022/01/26 12:16:54;;;;;;;;;;;4.80;99.90;;;;;;5037661;28;20004;-73
2022/01/26 12:43:43;;;;;;;;;;;4.90;99.90;;;;;;5037695;28;19920;-74
2022/01/26 12:46:09;;;;;;;;;;;4.90;99.90;;;;;;5036386;28;20537;-73
2022/01/26 12:48:39;;;;;;;;;;;4.90;99.90;;;;;;5035543;28;19920;-75
2022/01/26 12:51:06;;;;;;;;;;;4.90;99.90;;;;;;5036261;28;20408;-73
2022/01/26 12:53:32;;;;;;;;;;;4.90;99.90;;;;;;5036013;28;19913;-76
2022/01/26 12:55:59;;;;;;;;;;;4.90;99.90;;;;;;5038244;28;20023;-77
2022/01/26 12:58:32;;;;;;;;;;;4.90;99.90;;;;;;5052941;28;19964;-75
2022/01/26 13:00:59;;;;;;;;;;;4.90;99.90;;;;;;5036365;28;19913;-76
2022/01/26 13:03:28;;;;;;;;;;;4.90;99.90;;;;;;5035628;28;19936;-77
2022/01/26 13:06:03;;;;;;;;;;;4.90;99.90;;;;;;5035549;28;20031;-75
2022/01/26 13:08:38;;;;;;;;;;;4.80;99.90;;;;;;5035471;28;19917;-74
2022/01/26 13:11:04;;;;;;;;;;;4.80;99.90;;;;;;5035550;28;20469;-74
2022/01/26 13:13:32;;;;;;;;;;;4.80;99.90;;;;;;5018246;28;20007;-73
2022/01/26 13:16:10;;;;;;;;;;;4.80;99.90;;;;;;5037218;28;19921;-72
2022/01/26 13:18:58;;;;;;;;;;;4.90;99.90;;;;;;5036233;28;19944;-72
2022/01/26 13:24:27;;;;;;;;;;;4.90;99.90;;;;;;5039479;28;19978;-71
2022/01/26 13:27:09;;;;;;;;;;;4.90;99.90;;;;;;5044540;28;20567;-73
2022/01/26 13:32:51;;;;;;;;;;;4.90;99.90;;;;;;5040444;28;19989;-73
2022/01/26 13:53:12;;;;;;;;;;;4.90;99.90;;;;;;5039163;28;19913;-74
2022/01/26 14:01:00;;;;;;;;;;;4.90;99.90;;;;;;5062166;28;19916;-58
2022/01/26 14:03:29;;;;;;;;;;;4.90;99.90;;;;;;5060233;28;19913;-59
2022/01/26 14:05:55;;;;;;;;;;;4.90;99.90;;;;;;5058423;28;19921;-57
2022/01/26 14:08:21;;;;;;;;;;;4.90;99.90;;;;;;5058042;28;19959;-61
2022/01/26 14:10:48;;;;;;;;;;;4.90;99.90;;;;;;5061004;28;20158;-58
2022/01/26 14:13:19;;;;;;;;;;;4.90;99.90;;;;;;5058906;28;20371;-58
2022/01/26 14:15:47;;;;;;;;;;;4.80;99.90;;;;;;5060826;28;20388;-59
2022/01/26 14:18:41;;;;;;;;;;;4.80;99.90;;;;;;5062547;28;19935;-59
2022/01/26 14:21:22;;;;;;;;;;;4.80;99.90;;;;;;5063691;28;19919;-60
2022/01/26 14:26:14;;;;;;;;;;;4.80;99.90;;;;;;5061093;28;19916;-60
2022/01/26 14:28:40;;;;;;;;;;;4.80;99.90;;;;;;5060032;28;19923;-59
2022/01/26 15:00:41;;;;;;;;;;;4.60;99.90;;;;;;5063807;28;20383;-60
2022/01/26 15:30:10;;;;;;;;;;;4.60;99.90;;;;;;5056976;28;19919;-60
2022/01/26 15:53:13;;;;;;;;;;;4.70;99.90;;;;;;5058943;28;19913;-61
2022/01/26 18:17:01;;;;;;;;;;;4.40;99.90;;;;;;5068515;28;19950;-61
2022/01/26 18:33:14;;;;;;;;;;;4.40;99.90;;;;;;5070776;28;19922;-70
2022/01/26 18:49:14;;;;;;;;;;;4.50;99.90;;;;;;5068675;28;19917;-69
2022/01/26 18:51:42;;;;;;;;;;;4.50;99.90;;;;;;5063342;28;19959;-71
2022/01/26 18:54:08;;;;;;;;;;;4.50;99.90;;;;;;5069428;28;19919;-72
2022/01/26 18:56:35;;;;;;;;;;;4.50;99.90;;;;;;5070141;28;19925;-70
2022/01/26 18:59:01;;;;;;;;;;;4.50;99.90;;;;;;5070684;28;19936;-70
2022/01/26 19:01:26;;;;;;;;;;;4.50;99.90;;;;;;5068982;28;19924;-69
2022/01/26 19:03:53;;;;;;;;;;;4.50;99.90;;;;;;5068900;28;19919;-70
2022/01/26 19:06:18;;;;;;;;;;;4.50;99.90;;;;;;5071624;28;19974;-70
2022/01/26 19:08:44;;;;;;;;;;;4.50;99.90;;;;;;5070794;28;19917;-71
2022/01/26 19:11:11;;;;;;;;;;;4.50;99.90;;;;;;5072260;28;19919;-71
2022/01/26 19:13:37;;;;;;;;;;;4.50;99.90;;;;;;5069702;28;19955;-72
2022/01/26 19:16:10;;;;;;;;;;;4.40;99.90;;;;;;5068585;28;19909;-72
2022/01/26 19:21:27;;;;;;;;;;;4.30;99.90;;;;;;5053259;28;19912;-68
2022/01/26 19:26:43;;;;;;;;;;;4.30;99.90;;;;;;5052708;28;20031;-72
2022/01/26 19:29:25;;;;;;;;;;;4.30;99.90;;;;;;5068276;28;19923;-70
2022/01/26 19:51:10;;;;;;;;;;;4.30;99.90;;;;;;5009682;28;19964;-72
2022/01/26 19:53:36;;;;;;;;;;;4.30;99.90;;;;;;5009573;28;19913;-72
2022/01/26 19:56:02;;;;;;;;;;;4.30;99.90;;;;;;5009674;28;19921;-72
2022/01/26 19:58:27;;;;;;;;;;;4.30;99.90;;;;;;5008994;28;19923;-72
2022/01/26 20:00:53;;;;;;;;;;;4.40;99.90;;;;;;5008961;28;19913;-72
2022/01/26 20:03:21;;;;;;;;;;;4.40;99.90;;;;;;5008392;28;19960;-71
2022/01/26 20:05:48;;;;;;;;;;;4.40;99.90;;;;;;5009301;28;20309;-71
2022/01/26 20:08:39;;;;;;;;;;;4.40;99.90;;;;;;5009192;28;20346;-71
2022/01/26 20:11:04;;;;;;;;;;;4.40;99.90;;;;;;5039383;28;20296;-71
2022/01/26 20:13:33;;;;;;;;;;;4.40;99.90;;;;;;5067599;28;19913;-71
2022/01/26 20:16:00;;;;;;;;;;;4.40;99.90;;;;;;5066998;28;19967;-71
2022/01/26 20:18:26;;;;;;;;;;;4.40;99.90;;;;;;5069506;28;19916;-70
2022/01/26 20:20:54;;;;;;;;;;;4.40;99.90;;;;;;5067694;28;19913;-71
2022/01/26 20:23:19;;;;;;;;;;;4.40;99.90;;;;;;5069936;28;19961;-70
2022/01/26 20:25:49;;;;;;;;;;;4.40;99.90;;;;;;5046469;28;19920;-69
2022/01/26 20:28:16;;;;;;;;;;;4.30;99.90;;;;;;5067085;28;19919;-71
2022/01/26 20:30:45;;;;;;;;;;;4.30;99.90;;;;;;5066291;28;20015;-71
2022/01/26 20:33:11;;;;;;;;;;;4.20;99.90;;;;;;5067607;28;19916;-70
2022/01/26 20:35:37;;;;;;;;;;;4.20;99.90;;;;;;5067543;28;20295;-70
2022/01/26 20:38:03;;;;;;;;;;;4.20;99.90;;;;;;5070900;28;19999;-71
2022/01/26 20:40:29;;;;;;;;;;;4.10;99.90;;;;;;5067197;28;19944;-70
2022/01/26 20:42:54;;;;;;;;;;;4.20;99.90;;;;;;5067294;28;20006;-72
2022/01/26 20:45:21;;;;;;;;;;;4.20;99.90;;;;;;5066598;28;20024;-73
2022/01/26 20:47:47;;;;;;;;;;;4.30;99.90;;;;;;5067079;28;19952;-69
2022/01/26 20:50:13;;;;;;;;;;;4.30;99.90;;;;;;5069143;28;19927;-58
2022/01/26 20:52:38;;;;;;;;;;;4.30;99.90;;;;;;5069419;28;19998;-58
2022/01/26 20:55:05;;;;;;;;;;;4.30;99.90;;;;;;5066697;28;19970;-56
2022/01/26 20:57:31;;;;;;;;;;;4.30;99.90;;;;;;5066194;28;19921;-57
2022/01/26 20:59:56;;;;;;;;;;;4.20;99.90;;;;;;5067662;28;19923;-56
2022/01/26 21:02:22;;;;;;;;;;;4.30;99.90;;;;;;5069818;28;20468;-58
2022/01/26 21:04:48;;;;;;;;;;;4.30;99.90;;;;;;5068094;28;19978;-57
2022/01/26 21:07:13;;;;;;;;;;;4.30;99.90;;;;;;5050969;28;19913;-56
2022/01/26 21:09:39;;;;;;;;;;;4.20;99.90;;;;;;5066652;28;19935;-55
2022/01/26 21:12:04;;;;;;;;;;;4.20;99.90;;;;;;5066831;28;19912;-55
2022/01/26 21:14:31;;;;;;;;;;;4.20;99.90;;;;;;5067800;28;19912;-52
2022/01/26 21:16:57;;;;;;;;;;;4.20;99.90;;;;;;5069191;28;19920;-56
2022/01/26 21:19:22;;;;;;;;;;;4.20;99.90;;;;;;5066740;28;19913;-56
2022/01/26 21:21:48;;;;;;;;;;;4.20;99.90;;;;;;5066342;28;20376;-56
2022/01/26 21:24:13;;;;;;;;;;;4.20;99.90;;;;;;5064739;28;19920;-56
2022/01/26 21:26:39;;;;;;;;;;;4.20;99.90;;;;;;5066261;28;19916;-59
2022/01/26 21:29:05;;;;;;;;;;;4.20;99.90;;;;;;5069971;28;19908;-56
2022/01/26 21:31:30;;;;;;;;;;;4.20;99.90;;;;;;5066597;28;19913;-57
2022/01/26 21:33:56;;;;;;;;;;;4.20;99.90;;;;;;5050422;28;19916;-55
2022/01/26 21:36:21;;;;;;;;;;;4.30;99.90;;;;;;5069328;28;20448;-56
2022/01/26 21:38:47;;;;;;;;;;;4.30;99.90;;;;;;5068152;28;20006;-56
2022/01/26 21:41:13;;;;;;;;;;;4.30;99.90;;;;;;5071245;28;20013;-56
2022/01/26 21:43:39;;;;;;;;;;;4.30;99.90;;;;;;5069609;28;20308;-56
2022/01/26 21:46:04;;;;;;;;;;;4.30;99.90;;;;;;5071626;28;19923;-58
2022/01/26 21:48:30;;;;;;;;;;;4.20;99.90;;;;;;5070461;28;19948;-56